Time;durP1;ratioP1;P1;durP2;ratioP2;P2;SDS_P1;SDS_P2;PMS_P1;PMS_P2;Temp;Humidity;BMP_temperature;BMP_pressure;BME280_temperature;BME280_humidity;BME280_pressure;Samples;Min_cycle;Max_cycle;Signal;HPM_P1;HPM_P2
2023/07/28 00:01:58;;;;;;;2.13;1.83;;;21.70;99.90;;;;;;5114718;28;20706;-70
2023/07/28 00:04:25;;;;;;;1.90;1.63;;;21.70;99.90;;;;;;5115116;27;20237;-69
2023/07/28 00:06:52;;;;;;;2.55;1.70;;;21.70;99.90;;;;;;5114589;28;20237;-69
2023/07/28 00:09:19;;;;;;;2.10;1.73;;;21.80;99.90;;;;;;5114688;28;20241;-69
2023/07/28 00:11:46;;;;;;;2.15;1.73;;;21.80;99.90;;;;;;5114656;28;20239;-69
2023/07/28 00:14:13;;;;;;;2.47;1.83;;;21.70;99.90;;;;;;5114598;28;20240;-73
2023/07/28 00:16:41;;;;;;;1.38;1.17;;;21.70;99.90;;;;;;5114569;28;20229;-70
2023/07/28 00:19:08;;;;;;;1.65;1.48;;;21.60;99.90;;;;;;5114369;28;20244;-70
2023/07/28 00:21:35;;;;;;;2.08;1.77;;;21.60;99.90;;;;;;5114332;28;20634;-70
2023/07/28 00:24:02;;;;;;;1.70;1.55;;;21.60;99.90;;;;;;5113998;28;20278;-69
2023/07/28 00:26:28;;;;;;;2.00;1.80;;;21.50;99.90;;;;;;5114120;28;20342;-87
2023/07/28 00:28:56;;;;;;;2.20;1.42;;;21.50;99.90;;;;;;5113964;28;20240;-70
2023/07/28 00:31:22;;;;;;;2.17;1.75;;;21.40;99.90;;;;;;5114456;28;20212;-70
2023/07/28 00:33:51;;;;;;;1.95;1.67;;;21.30;99.90;;;;;;5114083;28;20233;-70
2023/07/28 00:36:18;;;;;;;2.45;1.90;;;21.40;99.90;;;;;;5114564;28;20246;-70
2023/07/28 00:38:44;;;;;;;1.88;1.77;;;21.40;99.90;;;;;;5114192;28;20240;-69
2023/07/28 00:41:11;;;;;;;1.90;1.70;;;21.40;99.90;;;;;;5113780;28;20283;-69
2023/07/28 00:43:38;;;;;;;1.85;1.75;;;21.30;99.90;;;;;;5113886;28;20319;-70
2023/07/28 00:46:05;;;;;;;2.10;1.90;;;21.30;99.90;;;;;;5113823;28;20236;-78
2023/07/28 00:48:32;;;;;;;2.28;2.08;;;21.30;99.90;;;;;;5113930;28;20707;-70
2023/07/28 00:51:00;;;;;;;1.60;1.50;;;21.20;99.90;;;;;;5085359;28;20248;-70
2023/07/28 00:53:28;;;;;;;3.30;1.83;;;21.30;99.90;;;;;;5113879;28;20251;-86
2023/07/28 00:55:55;;;;;;;1.77;1.67;;;21.30;99.90;;;;;;5113163;28;20269;-70
2023/07/28 00:58:22;;;;;;;2.50;1.95;;;21.20;99.90;;;;;;5112516;28;20232;-69
2023/07/28 01:00:49;;;;;;;2.95;1.58;;;21.10;99.90;;;;;;5113892;28;20244;-69
2023/07/28 01:03:17;;;;;;;3.33;2.05;;;21.00;99.90;;;;;;5113709;28;20274;-70
2023/07/28 01:05:51;;;;;;;1.85;1.75;;;21.00;99.90;;;;;;5113935;28;20244;-70
2023/07/28 01:08:27;;;;;;;2.95;1.90;;;21.00;99.90;;;;;;5113628;28;20259;-69
2023/07/28 01:10:54;;;;;;;3.10;1.92;;;20.90;99.90;;;;;;5113147;28;20236;-69
2023/07/28 01:13:21;;;;;;;4.03;1.90;;;20.80;99.90;;;;;;5112902;27;20243;-69
2023/07/28 01:15:48;;;;;;;1.70;1.50;;;20.70;99.90;;;;;;5113470;28;20679;-70
2023/07/28 01:18:15;;;;;;;2.92;2.00;;;20.80;99.90;;;;;;5113585;28;20617;-69
2023/07/28 01:20:45;;;;;;;2.65;2.15;;;20.80;99.90;;;;;;5113349;28;20201;-69
2023/07/28 01:23:21;;;;;;;3.75;2.10;;;20.90;99.90;;;;;;5112882;28;20246;-70
2023/07/28 01:25:53;;;;;;;2.67;1.55;;;20.90;99.90;;;;;;5113621;28;20216;-71
2023/07/28 01:28:22;;;;;;;2.53;1.95;;;20.90;99.90;;;;;;5112914;28;20255;-70
2023/07/28 01:30:49;;;;;;;1.92;1.63;;;21.00;99.90;;;;;;5113194;28;20236;-69
2023/07/28 01:33:16;;;;;;;2.28;2.03;;;21.10;99.90;;;;;;5113005;28;20237;-69
2023/07/28 01:35:43;;;;;;;2.10;1.90;;;21.10;99.90;;;;;;5113468;28;20196;-70
2023/07/28 01:38:09;;;;;;;3.22;1.52;;;21.00;99.90;;;;;;5112528;28;20250;-69
2023/07/28 01:40:36;;;;;;;3.65;2.22;;;21.00;99.90;;;;;;5112846;28;20201;-71
2023/07/28 01:43:03;;;;;;;2.67;1.80;;;21.00;99.90;;;;;;5112277;28;20205;-69
2023/07/28 01:45:32;;;;;;;2.25;2.05;;;21.00;99.90;;;;;;5112412;28;20229;-70
2023/07/28 01:47:58;;;;;;;1.65;1.55;;;21.00;99.90;;;;;;5112674;28;20247;-69
2023/07/28 01:50:25;;;;;;;1.90;1.70;;;20.90;99.90;;;;;;5112794;28;20233;-69
2023/07/28 01:52:52;;;;;;;2.70;2.03;;;20.80;99.90;;;;;;5112227;28;20204;-70
2023/07/28 01:55:19;;;;;;;4.05;1.90;;;20.80;99.90;;;;;;5112810;28;20718;-69
2023/07/28 01:57:53;;;;;;;2.88;2.08;;;20.80;99.90;;;;;;5112795;28;20281;-86
2023/07/28 02:00:20;;;;;;;2.92;1.40;;;20.80;99.90;;;;;;5112451;28;20216;-69
2023/07/28 02:02:49;;;;;;;1.52;1.33;;;20.80;99.90;;;;;;5113197;28;20209;-85
2023/07/28 02:05:16;;;;;;;1.40;1.27;;;20.80;99.90;;;;;;5113513;28;20268;-87
2023/07/28 02:07:43;;;;;;;1.90;1.65;;;20.80;99.90;;;;;;5113265;28;20613;-70
2023/07/28 02:10:11;;;;;;;1.50;1.40;;;20.70;99.90;;;;;;5111733;28;20247;-69
2023/07/28 02:12:38;;;;;;;2.20;1.67;;;20.70;99.90;;;;;;5104080;28;20212;-70
2023/07/28 02:15:06;;;;;;;2.33;2.03;;;20.60;99.90;;;;;;5111906;28;20232;-82
2023/07/28 02:17:33;;;;;;;2.22;1.48;;;20.60;99.90;;;;;;5111154;28;20236;-70
2023/07/28 02:20:03;;;;;;;2.15;1.60;;;20.60;99.90;;;;;;5111854;27;20201;-69
2023/07/28 02:22:30;;;;;;;3.70;1.83;;;20.60;99.90;;;;;;5112210;28;20201;-70
2023/07/28 02:25:00;;;;;;;2.85;1.80;;;20.60;99.90;;;;;;5111511;28;20271;-70
2023/07/28 02:27:27;;;;;;;2.70;1.30;;;20.60;99.90;;;;;;5112065;28;20212;-69
2023/07/28 02:29:53;;;;;;;1.20;1.10;;;20.50;99.90;;;;;;5111527;28;20232;-70
2023/07/28 02:32:21;;;;;;;2.15;1.50;;;20.60;99.90;;;;;;5112132;28;20308;-70
2023/07/28 02:34:48;;;;;;;1.75;1.30;;;20.50;99.90;;;;;;5112189;28;20211;-86
2023/07/28 02:37:16;;;;;;;2.30;1.30;;;20.50;99.90;;;;;;5111819;27;20685;-70
2023/07/28 02:39:43;;;;;;;2.97;1.35;;;20.50;99.90;;;;;;5111836;28;20239;-69
2023/07/28 02:42:10;;;;;;;2.92;1.58;;;20.40;99.90;;;;;;5111678;28;20240;-70
2023/07/28 02:44:37;;;;;;;1.40;1.30;;;20.40;99.90;;;;;;5111750;28;20316;-87
2023/07/28 02:47:04;;;;;;;2.42;1.45;;;20.30;99.90;;;;;;5111829;28;20664;-86
2023/07/28 02:49:31;;;;;;;2.83;1.42;;;20.40;99.90;;;;;;5112095;28;20696;-70
2023/07/28 02:51:58;;;;;;;2.22;1.45;;;20.30;99.90;;;;;;5111396;28;20239;-70
2023/07/28 02:54:27;;;;;;;2.65;1.40;;;20.30;99.90;;;;;;5111265;28;20204;-69
2023/07/28 02:56:53;;;;;;;2.47;1.48;;;20.30;99.90;;;;;;5111168;28;20224;-87
2023/07/28 02:59:22;;;;;;;2.53;1.45;;;20.30;99.90;;;;;;5111734;28;20236;-69
2023/07/28 03:01:51;;;;;;;2.40;1.60;;;20.30;99.90;;;;;;5111099;28;20259;-70
2023/07/28 03:04:19;;;;;;;1.65;1.30;;;20.30;99.90;;;;;;5111558;28;20235;-71
2023/07/28 03:06:47;;;;;;;1.83;1.42;;;20.30;99.90;;;;;;5111316;28;20638;-70
2023/07/28 03:09:14;;;;;;;1.77;1.67;;;20.30;99.90;;;;;;5111019;28;20668;-70
2023/07/28 03:11:43;;;;;;;1.98;1.27;;;20.30;99.90;;;;;;5111251;28;20219;-85
2023/07/28 03:14:11;;;;;;;2.20;2.00;;;20.30;99.90;;;;;;5111038;28;20209;-69
2023/07/28 03:16:38;;;;;;;2.33;2.13;;;20.30;99.90;;;;;;5112160;28;20232;-86
2023/07/28 03:19:04;;;;;;;2.50;1.85;;;20.30;99.90;;;;;;5111493;28;20239;-86
2023/07/28 03:21:32;;;;;;;2.05;1.90;;;20.20;99.90;;;;;;5110942;28;20247;-71
2023/07/28 03:23:59;;;;;;;3.92;1.90;;;20.20;99.90;;;;;;5111120;28;20205;-84
2023/07/28 03:26:26;;;;;;;2.38;1.70;;;20.20;99.90;;;;;;5111665;28;20232;-70
2023/07/28 03:28:54;;;;;;;3.33;1.73;;;20.20;99.90;;;;;;5110696;28;20229;-70
2023/07/28 03:31:21;;;;;;;2.78;2.03;;;20.30;99.90;;;;;;5111161;28;20236;-70
2023/07/28 03:33:48;;;;;;;2.75;1.35;;;20.20;99.90;;;;;;5110839;28;20236;-70
2023/07/28 03:36:15;;;;;;;2.45;1.73;;;20.20;99.90;;;;;;5111723;28;20216;-87
2023/07/28 03:38:42;;;;;;;1.98;1.77;;;20.20;99.90;;;;;;5110522;28;20232;-69
2023/07/28 03:41:09;;;;;;;2.40;1.70;;;20.30;99.90;;;;;;5110912;28;20658;-85
2023/07/28 03:43:36;;;;;;;5.00;2.53;;;20.30;99.90;;;;;;5111847;28;20243;-83
2023/07/28 03:46:04;;;;;;;2.50;1.98;;;20.30;99.90;;;;;;5111208;28;20236;-74
2023/07/28 03:48:31;;;;;;;2.45;2.08;;;20.20;99.90;;;;;;5111327;28;20630;-86
2023/07/28 03:50:58;;;;;;;1.67;1.58;;;20.20;99.90;;;;;;5111538;28;20247;-70
2023/07/28 03:53:25;;;;;;;4.03;2.10;;;20.30;99.90;;;;;;5110934;28;20236;-69
2023/07/28 03:55:53;;;;;;;3.15;2.45;;;20.30;99.90;;;;;;5110324;28;20691;-70
2023/07/28 03:58:20;;;;;;;3.72;2.30;;;20.10;99.90;;;;;;5110913;28;20641;-70
2023/07/28 04:00:47;;;;;;;2.45;1.65;;;20.00;99.90;;;;;;5111042;28;20213;-70
2023/07/28 04:03:16;;;;;;;2.85;2.35;;;20.00;99.90;;;;;;5110628;28;20744;-70
2023/07/28 04:05:43;;;;;;;2.38;2.03;;;20.00;99.90;;;;;;5110454;28;20636;-86
2023/07/28 04:08:09;;;;;;;2.20;1.85;;;20.00;99.90;;;;;;5110311;28;20240;-69
2023/07/28 04:10:36;;;;;;;2.58;1.95;;;19.90;99.90;;;;;;5096257;28;20241;-81
2023/07/28 04:13:03;;;;;;;2.30;2.10;;;19.80;99.90;;;;;;5110410;28;20236;-70
2023/07/28 04:15:30;;;;;;;3.80;2.03;;;19.70;99.90;;;;;;5110548;28;20240;-69
2023/07/28 04:17:57;;;;;;;2.28;1.40;;;19.70;99.90;;;;;;5110316;28;20248;-70
2023/07/28 04:20:25;;;;;;;7.47;2.42;;;19.80;99.90;;;;;;5110485;28;20718;-69
2023/07/28 04:22:52;;;;;;;3.30;1.92;;;19.80;99.90;;;;;;5110286;28;20245;-69
2023/07/28 04:25:19;;;;;;;4.00;2.08;;;19.80;99.90;;;;;;5110536;28;20649;-69
2023/07/28 04:27:46;;;;;;;2.22;2.03;;;19.70;99.90;;;;;;5110946;28;20288;-73
2023/07/28 04:30:13;;;;;;;2.88;1.98;;;19.60;99.90;;;;;;5110199;28;20209;-69
2023/07/28 04:32:40;;;;;;;3.60;1.92;;;19.50;99.90;;;;;;5110769;28;20237;-69
2023/07/28 04:35:07;;;;;;;2.88;1.73;;;19.40;99.90;;;;;;5113997;28;20240;-85
2023/07/28 04:37:36;;;;;;;3.85;1.95;;;19.40;99.90;;;;;;5114019;28;20236;-70
2023/07/28 04:40:03;;;;;;;2.85;1.95;;;19.40;99.90;;;;;;5114015;28;20273;-85
2023/07/28 04:42:30;;;;;;;2.25;2.08;;;19.40;99.90;;;;;;5114111;28;20240;-70
2023/07/28 04:44:57;;;;;;;2.55;2.08;;;19.40;99.90;;;;;;5113696;28;20707;-71
2023/07/28 04:47:24;;;;;;;2.50;1.92;;;19.40;99.90;;;;;;5114359;28;20236;-82
2023/07/28 04:49:51;;;;;;;2.88;2.10;;;19.50;99.90;;;;;;5085090;28;20244;-69
2023/07/28 04:52:17;;;;;;;3.33;2.25;;;19.60;99.90;;;;;;5114635;28;20201;-70
2023/07/28 04:54:46;;;;;;;2.58;1.92;;;19.60;99.90;;;;;;5114528;27;20205;-70
2023/07/28 04:57:13;;;;;;;2.03;1.83;;;19.70;99.90;;;;;;5113302;28;20248;-85
2023/07/28 04:59:40;;;;;;;3.05;1.80;;;19.80;99.90;;;;;;5113402;28;20240;-70
2023/07/28 05:02:07;;;;;;;2.67;2.10;;;19.70;99.90;;;;;;5113330;28;20236;-69
2023/07/28 05:04:36;;;;;;;2.67;2.13;;;19.70;99.90;;;;;;5113392;28;20642;-69
2023/07/28 05:07:03;;;;;;;2.65;2.22;;;19.50;99.90;;;;;;5113329;28;20748;-85
2023/07/28 05:09:30;;;;;;;1.70;1.50;;;19.50;99.90;;;;;;5113657;28;20250;-70
2023/07/28 05:11:58;;;;;;;5.25;2.63;;;19.40;99.90;;;;;;5113133;28;20237;-70
2023/07/28 05:14:25;;;;;;;2.30;2.10;;;19.50;99.90;;;;;;5113090;28;20236;-84
2023/07/28 05:16:52;;;;;;;2.50;2.28;;;19.60;99.90;;;;;;5112850;28;20244;-70
2023/07/28 05:19:19;;;;;;;3.08;2.45;;;19.60;99.90;;;;;;5113321;28;20247;-70
2023/07/28 05:21:45;;;;;;;3.72;2.10;;;19.70;99.90;;;;;;5112738;28;20644;-70
2023/07/28 05:24:12;;;;;;;2.75;2.25;;;19.80;99.90;;;;;;5113475;28;20228;-70
2023/07/28 05:26:39;;;;;;;4.13;2.45;;;19.80;99.90;;;;;;5113247;28;20240;-69
2023/07/28 05:29:07;;;;;;;4.95;3.08;;;19.80;99.90;;;;;;5112543;27;20228;-85
2023/07/28 05:31:34;;;;;;;4.13;2.63;;;19.80;99.90;;;;;;5113307;28;20254;-69
2023/07/28 05:34:01;;;;;;;4.30;2.45;;;19.80;99.90;;;;;;5112846;28;20278;-69
2023/07/28 05:36:28;;;;;;;3.42;2.55;;;19.90;99.90;;;;;;5113329;28;20239;-70
2023/07/28 05:38:56;;;;;;;3.45;2.92;;;20.00;99.90;;;;;;5112336;28;20676;-70
2023/07/28 05:41:23;;;;;;;4.10;2.45;;;20.00;99.90;;;;;;5113300;28;20222;-69
2023/07/28 05:43:50;;;;;;;4.20;3.33;;;19.90;99.90;;;;;;5112510;28;20262;-69
2023/07/28 05:46:19;;;;;;;5.38;2.95;;;20.10;99.90;;;;;;5112481;28;20258;-84
2023/07/28 05:48:46;;;;;;;5.35;2.45;;;20.20;99.90;;;;;;5112786;28;20204;-70
2023/07/28 05:51:13;;;;;;;3.63;2.20;;;20.20;99.90;;;;;;5112750;28;20243;-72
2023/07/28 05:53:40;;;;;;;3.60;2.70;;;20.20;99.90;;;;;;5112934;28;20247;-70
2023/07/28 05:56:07;;;;;;;6.57;2.58;;;20.20;99.90;;;;;;5112860;28;20208;-70
2023/07/28 05:58:33;;;;;;;3.50;2.55;;;20.30;99.90;;;;;;5112808;28;20229;-70
2023/07/28 06:01:01;;;;;;;3.15;2.88;;;20.30;99.90;;;;;;5112084;28;20217;-87
2023/07/28 06:03:30;;;;;;;3.17;2.88;;;20.30;99.90;;;;;;5098435;28;20664;-70
2023/07/28 06:05:57;;;;;;;3.47;2.47;;;20.40;99.90;;;;;;5112150;28;20731;-70
2023/07/28 06:08:24;;;;;;;2.97;2.55;;;20.30;99.90;;;;;;5112497;28;20248;-70
2023/07/28 06:10:51;;;;;;;7.00;3.28;;;20.30;99.90;;;;;;5112446;28;20232;-70
2023/07/28 06:13:18;;;;;;;2.40;2.20;;;20.50;99.90;;;;;;5112347;28;20236;-70
2023/07/28 06:15:45;;;;;;;3.33;2.50;;;20.50;99.90;;;;;;5112423;28;20654;-86
2023/07/28 06:18:12;;;;;;;3.20;2.70;;;20.60;99.90;;;;;;5113064;28;20300;-86
2023/07/28 06:20:43;;;;;;;2.22;2.03;;;20.60;99.90;;;;;;5112787;28;20235;-83
2023/07/28 06:23:10;;;;;;;4.93;2.65;;;20.80;99.90;;;;;;5113017;28;20273;-81
2023/07/28 06:25:38;;;;;;;2.90;2.33;;;21.30;99.90;;;;;;5112156;28;20263;-81
2023/07/28 06:28:06;;;;;;;2.50;2.15;;;21.70;99.90;;;;;;5108872;28;20208;-80
2023/07/28 06:30:33;;;;;;;3.05;2.67;;;22.00;99.90;;;;;;5097424;28;20245;-73
2023/07/28 06:32:59;;;;;;;5.10;2.60;;;22.20;99.90;;;;;;5099370;28;20251;-74
2023/07/28 06:35:27;;;;;;;2.30;2.10;;;22.40;99.90;;;;;;5091102;28;20258;-82
2023/07/28 06:37:55;;;;;;;2.10;1.90;;;22.60;99.90;;;;;;5090707;28;20209;-83
2023/07/28 06:40:22;;;;;;;2.55;2.35;;;22.30;99.90;;;;;;5091156;28;20229;-73
2023/07/28 06:42:49;;;;;;;2.45;2.15;;;22.20;99.90;;;;;;5090553;28;20252;-73
2023/07/28 06:45:16;;;;;;;2.88;1.90;;;22.30;99.90;;;;;;5089581;28;20677;-80
2023/07/28 06:47:43;;;;;;;4.28;2.25;;;22.30;99.90;;;;;;5086865;28;20240;-72
2023/07/28 06:50:11;;;;;;;3.83;2.25;;;22.30;99.90;;;;;;5090995;28;20216;-77
2023/07/28 06:52:38;;;;;;;3.22;2.78;;;22.20;99.90;;;;;;5091150;28;20197;-76
2023/07/28 06:55:07;;;;;;;2.75;1.90;;;22.20;99.90;;;;;;5090509;28;20292;-73
2023/07/28 06:57:35;;;;;;;2.80;1.85;;;22.20;99.90;;;;;;5089887;28;20648;-73
2023/07/28 07:00:03;;;;;;;2.28;2.08;;;22.20;99.90;;;;;;5090201;28;20234;-79
2023/07/28 07:02:30;;;;;;;2.15;1.95;;;22.30;99.90;;;;;;5090993;28;20227;-79
2023/07/28 07:04:57;;;;;;;2.80;2.20;;;22.60;99.90;;;;;;5090484;28;20241;-76
2023/07/28 07:07:25;;;;;;;3.45;1.80;;;22.60;99.90;;;;;;5090832;28;20271;-77
2023/07/28 07:09:52;;;;;;;2.47;2.20;;;22.60;99.90;;;;;;5089808;28;20213;-76
2023/07/28 07:12:21;;;;;;;3.95;2.13;;;22.60;99.90;;;;;;5091021;28;20638;-76
2023/07/28 07:14:48;;;;;;;2.22;2.03;;;22.70;99.90;;;;;;5090365;28;20205;-76
2023/07/28 07:17:15;;;;;;;2.55;1.90;;;22.70;99.90;;;;;;5090587;28;20237;-77
2023/07/28 07:19:42;;;;;;;3.83;2.33;;;22.80;99.90;;;;;;5090803;28;20296;-74
2023/07/28 07:22:09;;;;;;;2.30;2.10;;;22.90;99.90;;;;;;5105523;28;20248;-75
2023/07/28 07:24:36;;;;;;;2.40;2.20;;;23.00;99.90;;;;;;5086229;28;20232;-77
2023/07/28 07:27:03;;;;;;;2.78;2.22;;;23.40;99.90;;;;;;5089829;28;20324;-75
2023/07/28 07:29:31;;;;;;;3.50;2.03;;;23.60;99.90;;;;;;5090404;28;20244;-73
2023/07/28 07:31:58;;;;;;;2.17;1.85;;;23.60;99.90;;;;;;5090127;28;20326;-76
2023/07/28 07:34:25;;;;;;;3.42;2.35;;;23.60;99.90;;;;;;5090134;28;20240;-77
2023/07/28 07:36:52;;;;;;;2.40;2.20;;;23.60;99.90;;;;;;5089941;28;20206;-74
2023/07/28 07:39:19;;;;;;;4.55;2.63;;;23.60;99.90;;;;;;5090502;28;20229;-77
2023/07/28 07:41:45;;;;;;;4.68;3.30;;;23.70;99.90;;;;;;5089797;28;20240;-74
2023/07/28 07:44:12;;;;;;;4.75;2.83;;;23.80;99.90;;;;;;5090241;28;20697;-73
2023/07/28 07:46:40;;;;;;;2.60;2.40;;;23.90;99.90;;;;;;5090268;28;20677;-77
2023/07/28 07:49:07;;;;;;;3.28;2.20;;;23.90;99.90;;;;;;5079543;28;20259;-74
2023/07/28 07:51:35;;;;;;;3.35;3.05;;;23.90;99.90;;;;;;5078548;28;20201;-76
2023/07/28 07:54:02;;;;;;;2.63;2.42;;;24.20;99.90;;;;;;5084820;28;20713;-76
2023/07/28 07:56:29;;;;;;;2.25;1.92;;;24.40;99.90;;;;;;5089426;28;20202;-77
2023/07/28 07:58:56;;;;;;;2.80;2.58;;;24.50;99.90;;;;;;5089854;28;20241;-77
2023/07/28 08:01:23;;;;;;;4.25;1.77;;;24.80;99.90;;;;;;5089993;28;20205;-75
2023/07/28 08:03:51;;;;;;;3.03;2.72;;;24.90;99.90;;;;;;5090109;28;20205;-77
2023/07/28 08:06:18;;;;;;;2.15;1.95;;;24.60;99.90;;;;;;5086332;28;20265;-77
2023/07/28 08:08:45;;;;;;;3.17;2.28;;;24.80;99.90;;;;;;5091512;28;20201;-74
2023/07/28 08:11:13;;;;;;;2.45;2.25;;;25.00;99.90;;;;;;5087820;28;20258;-75
2023/07/28 08:13:40;;;;;;;3.13;2.45;;;24.90;99.90;;;;;;5094026;28;20206;-73
2023/07/28 08:16:07;;;;;;;2.90;2.60;;;24.60;99.90;;;;;;5094044;28;20205;-77
2023/07/28 08:18:33;;;;;;;2.50;2.30;;;24.60;99.90;;;;;;5093943;28;20641;-77
2023/07/28 08:21:02;;;;;;;3.30;2.15;;;24.70;99.90;;;;;;5100203;28;20251;-75
2023/07/28 08:23:29;;;;;;;3.20;2.90;;;24.90;99.90;;;;;;5113958;28;20261;-82
2023/07/28 08:25:56;;;;;;;3.17;2.58;;;24.90;99.90;;;;;;5093997;28;20272;-80
2023/07/28 08:28:23;;;;;;;2.20;2.00;;;25.00;99.90;;;;;;5094287;28;20216;-70
2023/07/28 08:30:56;;;;;;;2.13;1.92;;;25.00;99.90;;;;;;5093939;28;20208;-80
2023/07/28 08:33:23;;;;;;;3.53;2.28;;;25.10;99.90;;;;;;5094056;28;20210;-81
2023/07/28 08:35:50;;;;;;;2.50;2.30;;;25.00;99.90;;;;;;5093525;28;20248;-76
2023/07/28 08:38:18;;;;;;;3.45;2.53;;;24.80;99.90;;;;;;5093640;28;20209;-74
2023/07/28 08:40:45;;;;;;;2.13;2.03;;;24.40;99.90;;;;;;5093253;28;20229;-80
2023/07/28 08:43:12;;;;;;;2.90;1.95;;;24.80;99.90;;;;;;5092526;28;20214;-81
2023/07/28 08:45:39;;;;;;;4.05;2.17;;;24.70;99.90;;;;;;5093397;28;20236;-76
2023/07/28 08:48:08;;;;;;;2.97;2.58;;;24.90;99.90;;;;;;5092992;28;20244;-82
2023/07/28 08:50:35;;;;;;;2.47;2.13;;;25.00;99.90;;;;;;5093036;28;20206;-80
2023/07/28 08:53:02;;;;;;;2.75;2.55;;;25.50;99.90;;;;;;5092421;28;20237;-78
2023/07/28 08:55:30;;;;;;;2.67;2.25;;;25.90;99.90;;;;;;5093005;28;20233;-79
2023/07/28 08:57:57;;;;;;;3.28;2.30;;;26.40;99.90;;;;;;5092660;28;20697;-76
2023/07/28 09:00:25;;;;;;;3.80;2.15;;;26.30;99.90;;;;;;5093204;28;20249;-82
2023/07/28 09:02:52;;;;;;;2.85;1.83;;;26.60;99.90;;;;;;5092954;28;20205;-74
2023/07/28 09:05:20;;;;;;;3.45;2.42;;;26.30;99.90;;;;;;5093223;28;20237;-81
2023/07/28 09:07:47;;;;;;;6.10;2.78;;;26.80;99.90;;;;;;5093191;28;20275;-85
2023/07/28 09:10:14;;;;;;;3.55;2.38;;;26.90;99.90;;;;;;5092939;28;20209;-84
2023/07/28 09:12:49;;;;;;;2.38;2.17;;;27.00;99.90;;;;;;5093647;28;20237;-83
2023/07/28 09:15:17;;;;;;;2.50;2.30;;;26.80;99.90;;;;;;5093434;28;20201;-84
2023/07/28 09:17:44;;;;;;;4.47;2.40;;;26.70;99.90;;;;;;5092788;28;20205;-75
2023/07/28 09:20:15;;;;;;;4.10;2.65;;;26.80;99.90;;;;;;5094584;28;20213;-79
2023/07/28 09:22:42;;;;;;;6.03;2.65;;;26.80;99.90;;;;;;5099550;28;20197;-71
2023/07/28 09:25:14;;;;;;;2.85;2.58;;;26.90;99.90;;;;;;5099584;28;20623;-74
2023/07/28 09:27:41;;;;;;;3.22;2.58;;;27.10;99.90;;;;;;5092135;28;20261;-74
2023/07/28 09:30:09;;;;;;;2.67;2.47;;;26.90;99.90;;;;;;5092557;28;20245;-80
2023/07/28 09:32:37;;;;;;;2.63;2.33;;;26.60;99.90;;;;;;5092725;28;20201;-78
2023/07/28 09:35:12;;;;;;;2.70;2.50;;;26.30;99.90;;;;;;5091844;28;20201;-80
2023/07/28 09:37:41;;;;;;;2.33;2.13;;;26.30;99.90;;;;;;5092529;28;20578;-81
2023/07/28 09:40:11;;;;;;;3.22;2.50;;;26.40;99.90;;;;;;5092429;28;20652;-82
2023/07/28 09:42:39;;;;;;;4.65;2.38;;;25.90;99.90;;;;;;5090829;28;20202;-70
2023/07/28 09:45:08;;;;;;;2.60;2.05;;;25.70;99.90;;;;;;5091847;28;20209;-78
2023/07/28 09:47:36;;;;;;;2.55;2.30;;;25.40;99.90;;;;;;5092250;28;20237;-74
2023/07/28 09:50:05;;;;;;;3.63;2.45;;;25.20;99.90;;;;;;5091625;28;20263;-81
2023/07/28 09:52:35;;;;;;;2.28;2.08;;;25.60;99.90;;;;;;5092159;28;20750;-77
2023/07/28 09:55:07;;;;;;;3.22;2.92;;;25.70;99.90;;;;;;5091597;28;20224;-81
2023/07/28 09:57:37;;;;;;;3.22;2.25;;;25.80;99.90;;;;;;5092345;28;20209;-72
2023/07/28 10:00:08;;;;;;;3.83;2.13;;;26.00;99.90;;;;;;5088206;28;20217;-79
2023/07/28 10:02:37;;;;;;;4.25;3.08;;;26.20;99.90;;;;;;5092023;28;20209;-75
2023/07/28 10:05:06;;;;;;;2.65;2.45;;;26.20;99.90;;;;;;5091240;28;20234;-69
2023/07/28 10:07:34;;;;;;;3.42;2.45;;;26.40;99.90;;;;;;5091997;28;20241;-75
2023/07/28 10:10:05;;;;;;;2.85;2.08;;;26.50;99.90;;;;;;5091392;28;20239;-80
2023/07/28 10:12:42;;;;;;;2.45;2.25;;;26.70;99.90;;;;;;5091850;28;20216;-71
2023/07/28 10:15:15;;;;;;;3.03;2.03;;;26.80;99.90;;;;;;5091497;28;20292;-80
2023/07/28 10:17:45;;;;;;;3.35;2.25;;;27.20;99.90;;;;;;5091078;28;20220;-71
2023/07/28 10:20:31;;;;;;;2.58;2.38;;;27.30;99.90;;;;;;5095067;28;20236;-81
2023/07/28 10:23:11;;;;;;;2.35;2.15;;;27.40;99.90;;;;;;5111455;28;20238;-73
2023/07/28 10:25:40;;;;;;;3.65;2.72;;;29.60;99.90;;;;;;5094229;28;20251;-77
2023/07/28 10:28:08;;;;;;;2.55;2.35;;;30.40;99.90;;;;;;5091420;28;20233;-76
2023/07/28 10:30:39;;;;;;;3.00;2.42;;;29.60;99.90;;;;;;5091083;28;20248;-82
2023/07/28 10:33:09;;;;;;;3.10;2.80;;;28.90;99.90;;;;;;5091212;28;20237;-78
2023/07/28 10:35:36;;;;;;;2.75;2.28;;;29.20;99.90;;;;;;5091509;28;20668;-77
2023/07/28 10:38:35;;;;;;;3.05;2.85;;;28.90;99.90;;;;;;5091108;28;20245;-71
2023/07/28 10:41:11;;;;;;;2.67;2.47;;;28.60;99.90;;;;;;5088318;28;20262;-80
2023/07/28 10:43:39;;;;;;;3.10;2.75;;;28.80;99.90;;;;;;5083395;28;20233;-80
2023/07/28 10:46:07;;;;;;;3.20;2.90;;;28.60;99.90;;;;;;5090944;28;20198;-78
2023/07/28 10:48:37;;;;;;;2.40;2.20;;;28.10;99.90;;;;;;5091100;28;20265;-73
2023/07/28 10:51:04;;;;;;;4.45;2.58;;;28.40;99.90;;;;;;5090995;28;20295;-77
2023/07/28 10:53:33;;;;;;;3.20;2.67;;;28.70;99.90;;;;;;5091495;28;20662;-86
2023/07/28 10:56:02;;;;;;;3.53;2.58;;;28.70;99.90;;;;;;5104304;28;20212;-74
2023/07/28 10:58:29;;;;;;;2.65;2.45;;;28.60;99.90;;;;;;5111458;28;20232;-74
2023/07/28 11:00:56;;;;;;;2.85;2.63;;;28.30;99.90;;;;;;5111356;28;20285;-74
2023/07/28 11:03:24;;;;;;;3.25;2.95;;;28.00;99.90;;;;;;5111723;28;20609;-80
2023/07/28 11:05:52;;;;;;;2.83;2.60;;;27.80;99.90;;;;;;5110899;28;20585;-84
2023/07/28 11:08:19;;;;;;;5.18;2.90;;;27.40;99.90;;;;;;5111495;28;20275;-87
2023/07/28 11:10:46;;;;;;;3.97;2.80;;;27.30;99.90;;;;;;5110897;28;20240;-74
2023/07/28 11:13:14;;;;;;;4.97;2.72;;;27.30;99.90;;;;;;5111443;28;20278;-74
2023/07/28 11:15:42;;;;;;;3.58;2.67;;;27.40;99.90;;;;;;5111416;28;20205;-73
2023/07/28 11:18:09;;;;;;;5.22;3.13;;;27.70;99.90;;;;;;5111002;28;20681;-88
2023/07/28 11:20:36;;;;;;;2.63;2.42;;;28.00;99.90;;;;;;5110898;28;20197;-80
2023/07/28 11:23:06;;;;;;;4.53;3.60;;;27.90;99.90;;;;;;5094538;28;20249;-76
2023/07/28 11:25:35;;;;;;;3.15;2.92;;;28.10;99.90;;;;;;5076222;28;20210;-73
2023/07/28 11:28:05;;;;;;;3.63;3.20;;;28.50;99.90;;;;;;5089925;28;20681;-76
2023/07/28 11:30:33;;;;;;;5.63;2.92;;;28.90;99.90;;;;;;5090588;28;20305;-82
2023/07/28 11:33:00;;;;;;;2.58;2.38;;;28.50;99.90;;;;;;5090044;28;20239;-73
2023/07/28 11:35:27;;;;;;;3.90;2.67;;;28.40;99.90;;;;;;5091681;28;20213;-89
2023/07/28 11:37:55;;;;;;;3.92;3.63;;;28.40;99.90;;;;;;5104125;28;20240;-72
2023/07/28 11:40:25;;;;;;;3.40;2.97;;;28.60;99.90;;;;;;5103842;28;20236;-72
2023/07/28 11:42:55;;;;;;;6.13;3.20;;;28.50;99.90;;;;;;5109450;28;20208;-72
2023/07/28 11:45:23;;;;;;;3.83;3.40;;;28.60;99.90;;;;;;5101966;28;20648;-85
2023/07/28 11:47:57;;;;;;;3.15;2.85;;;28.70;99.90;;;;;;5114497;28;20243;-86
2023/07/28 11:50:25;;;;;;;4.00;3.28;;;28.10;99.90;;;;;;5115243;28;20607;-73
2023/07/28 11:52:52;;;;;;;4.95;4.55;;;28.30;99.90;;;;;;5115016;28;20243;-73
2023/07/28 11:55:20;;;;;;;3.55;3.25;;;28.40;99.90;;;;;;5115206;28;20243;-72
2023/07/28 11:57:49;;;;;;;4.70;3.05;;;28.40;99.90;;;;;;5094824;27;20228;-72
2023/07/28 12:00:17;;;;;;;3.20;2.92;;;28.30;99.90;;;;;;5088740;28;20217;-72
2023/07/28 12:02:45;;;;;;;5.07;3.20;;;28.10;99.90;;;;;;5094051;28;20236;-72
2023/07/28 12:05:15;;;;;;;5.82;3.20;;;28.10;99.90;;;;;;5109044;28;20216;-74
2023/07/28 12:07:48;;;;;;;5.57;2.97;;;27.90;99.90;;;;;;5085764;28;20228;-73
2023/07/28 12:10:15;;;;;;;3.53;3.22;;;28.30;99.90;;;;;;5113883;28;20236;-72
2023/07/28 12:12:44;;;;;;;3.25;2.95;;;28.10;99.90;;;;;;5113960;28;20197;-72
2023/07/28 12:15:28;;;;;;;4.70;3.55;;;27.80;99.90;;;;;;5114744;28;20211;-72
2023/07/28 12:18:23;;;;;;;3.38;2.80;;;28.10;99.90;;;;;;5114361;28;20560;-72
2023/07/28 12:20:51;;;;;;;3.17;2.75;;;28.30;99.90;;;;;;5089482;28;20208;-73
2023/07/28 12:23:19;;;;;;;5.22;3.15;;;28.40;99.90;;;;;;5114317;28;20243;-87
2023/07/28 12:25:47;;;;;;;3.90;3.50;;;28.70;99.90;;;;;;5114021;28;20262;-72
2023/07/28 12:28:14;;;;;;;5.78;3.35;;;28.10;99.90;;;;;;5114607;28;20237;-72
2023/07/28 12:30:43;;;;;;;3.15;2.83;;;28.40;99.90;;;;;;5114026;28;20239;-71
2023/07/28 12:33:10;;;;;;;3.22;3.00;;;28.40;99.90;;;;;;5114595;27;20656;-73
2023/07/28 12:35:36;;;;;;;3.92;3.13;;;28.50;99.90;;;;;;5114188;28;20233;-72
2023/07/28 12:38:04;;;;;;;3.40;3.10;;;29.10;99.90;;;;;;5097030;28;20241;-87
2023/07/28 12:40:33;;;;;;;4.65;3.15;;;28.90;99.90;;;;;;5101499;28;20668;-73
2023/07/28 12:43:01;;;;;;;3.45;3.15;;;28.70;99.90;;;;;;5103269;28;20743;-88
2023/07/28 12:45:28;;;;;;;4.32;2.83;;;28.80;99.90;;;;;;5103680;28;20243;-86
2023/07/28 12:47:57;;;;;;;6.15;3.17;;;28.90;99.90;;;;;;5113250;28;20690;-73
2023/07/28 12:50:24;;;;;;;3.53;3.20;;;28.70;99.90;;;;;;5114328;28;20237;-73
2023/07/28 12:52:51;;;;;;;4.85;4.10;;;29.10;99.90;;;;;;5113689;28;20259;-88